sensor_id;sensor_type;location;lat;lon;timestamp;pressure;altitude;pressure_sealevel;temperature;humidity
9421;BME280;4749;51.398;5.466;2023-05-28T00:01:03;101786.47;;;16.50;100.00
9421;BME280;4749;51.398;5.466;2023-05-28T00:03:31;101777.66;;;16.44;100.00
9421;BME280;4749;51.398;5.466;2023-05-28T00:05:59;101783.00;;;16.38;100.00
9421;BME280;4749;51.398;5.466;2023-05-28T00:08:26;101782.16;;;16.31;100.00
9421;BME280;4749;51.398;5.466;2023-05-28T00:10:53;101786.63;;;16.24;100.00
9421;BME280;4749;51.398;5.466;2023-05-28T00:13:28;101778.72;;;16.15;100.00
9421;BME280;4749;51.398;5.466;2023-05-28T00:15:56;101776.13;;;16.06;100.00
9421;BME280;4749;51.398;5.466;2023-05-28T00:18:24;101777.91;;;15.96;100.00
9421;BME280;4749;51.398;5.466;2023-05-28T00:20:51;101770.00;;;15.87;100.00
9421;BME280;4749;51.398;5.466;2023-05-28T00:23:18;101770.91;;;15.80;100.00
9421;BME280;4749;51.398;5.466;2023-05-28T00:25:46;101765.69;;;15.72;100.00
9421;BME280;4749;51.398;5.466;2023-05-28T00:28:13;101763.03;;;15.66;100.00
9421;BME280;4749;51.398;5.466;2023-05-28T00:30:40;101764.81;;;15.61;100.00
9421;BME280;4749;51.398;5.466;2023-05-28T00:33:07;101768.34;;;15.56;100.00
9421;BME280;4749;51.398;5.466;2023-05-28T00:35:34;101766.59;;;15.50;100.00
9421;BME280;4749;51.398;5.466;2023-05-28T00:38:01;101759.53;;;15.46;100.00
9421;BME280;4749;51.398;5.466;2023-05-28T00:40:28;101761.31;;;15.41;100.00
9421;BME280;4749;51.398;5.466;2023-05-28T00:42:55;101751.63;;;15.34;100.00
9421;BME280;4749;51.398;5.466;2023-05-28T00:45:22;101752.50;;;15.28;100.00
9421;BME280;4749;51.398;5.466;2023-05-28T00:47:49;101765.78;;;15.22;100.00
9421;BME280;4749;51.398;5.466;2023-05-28T00:50:18;101756.94;;;15.17;100.00
9421;BME280;4749;51.398;5.466;2023-05-28T00:52:48;101757.81;;;15.13;100.00
9421;BME280;4749;51.398;5.466;2023-05-28T00:55:17;101750.78;;;15.09;100.00
9421;BME280;4749;51.398;5.466;2023-05-28T00:57:46;101751.69;;;15.06;100.00
9421;BME280;4749;51.398;5.466;2023-05-28T01:00:15;101764.03;;;15.01;100.00
9421;BME280;4749;51.398;5.466;2023-05-28T01:02:43;101751.69;;;14.97;100.00
9421;BME280;4749;51.398;5.466;2023-05-28T01:05:11;101755.22;;;14.95;100.00
9421;BME280;4749;51.398;5.466;2023-05-28T01:07:38;101752.56;;;14.91;100.00
9421;BME280;4749;51.398;5.466;2023-05-28T01:10:06;101755.25;;;14.88;100.00
9421;BME280;4749;51.398;5.466;2023-05-28T01:12:34;101761.41;;;14.84;100.00
9421;BME280;4749;51.398;5.466;2023-05-28T01:15:02;101757.00;;;14.82;100.00
9421;BME280;4749;51.398;5.466;2023-05-28T01:17:30;101758.75;;;14.81;100.00
9421;BME280;4749;51.398;5.466;2023-05-28T01:19:58;101757.00;;;14.77;100.00
9421;BME280;4749;51.398;5.466;2023-05-28T01:22:38;101749.06;;;14.76;100.00
9421;BME280;4749;51.398;5.466;2023-05-28T01:25:08;101756.13;;;14.74;100.00
9421;BME280;4749;51.398;5.466;2023-05-28T01:27:40;101752.56;;;14.69;100.00
9421;BME280;4749;51.398;5.466;2023-05-28T01:30:08;101755.22;;;14.67;100.00
9421;BME280;4749;51.398;5.466;2023-05-28T01:32:44;101749.94;;;14.66;100.00
9421;BME280;4749;51.398;5.466;2023-05-28T01:35:12;101756.13;;;14.64;100.00
9421;BME280;4749;51.398;5.466;2023-05-28T01:37:44;101750.81;;;14.61;100.00
9421;BME280;4749;51.398;5.466;2023-05-28T01:40:13;101752.56;;;14.61;100.00
9421;BME280;4749;51.398;5.466;2023-05-28T01:42:45;101750.81;;;14.58;100.00
9421;BME280;4749;51.398;5.466;2023-05-28T01:45:13;101752.59;;;14.55;100.00
9421;BME280;4749;51.398;5.466;2023-05-28T01:47:42;101752.56;;;14.52;100.00
9421;BME280;4749;51.398;5.466;2023-05-28T01:50:09;101753.47;;;14.49;100.00
9421;BME280;4749;51.398;5.466;2023-05-28T01:52:38;101753.47;;;14.46;100.00
9421;BME280;4749;51.398;5.466;2023-05-28T01:55:05;101752.53;;;14.44;100.00
9421;BME280;4749;51.398;5.466;2023-05-28T01:57:35;101763.09;;;14.44;100.00
9421;BME280;4749;51.398;5.466;2023-05-28T02:00:03;101754.28;;;14.44;100.00
9421;BME280;4749;51.398;5.466;2023-05-28T02:02:30;101756.06;;;14.42;100.00
9421;BME280;4749;51.398;5.466;2023-05-28T02:04:58;101766.63;;;14.42;100.00
9421;BME280;4749;51.398;5.466;2023-05-28T02:07:26;101757.81;;;14.40;100.00
9421;BME280;4749;51.398;5.466;2023-05-28T02:09:53;101756.06;;;14.40;100.00
9421;BME280;4749;51.398;5.466;2023-05-28T02:12:20;101759.59;;;14.41;100.00
9421;BME280;4749;51.398;5.466;2023-05-28T02:14:48;101757.81;;;14.40;100.00
9421;BME280;4749;51.398;5.466;2023-05-28T02:17:15;101764.84;;;14.36;100.00
9421;BME280;4749;51.398;5.466;2023-05-28T02:19:44;101754.28;;;14.33;100.00
9421;BME280;4749;51.398;5.466;2023-05-28T02:22:11;101756.03;;;14.31;100.00
9421;BME280;4749;51.398;5.466;2023-05-28T02:24:39;101754.28;;;14.31;100.00
9421;BME280;4749;51.398;5.466;2023-05-28T02:27:07;101746.34;;;14.34;100.00
9421;BME280;4749;51.398;5.466;2023-05-28T02:29:35;101745.47;;;14.35;100.00
9421;BME280;4749;51.398;5.466;2023-05-28T02:32:02;101746.34;;;14.36;100.00
9421;BME280;4749;51.398;5.466;2023-05-28T02:34:30;101737.53;;;14.34;100.00
9421;BME280;4749;51.398;5.466;2023-05-28T02:36:58;101740.16;;;14.32;100.00
9421;BME280;4749;51.398;5.466;2023-05-28T02:39:27;101743.69;;;14.34;100.00
9421;BME280;4749;51.398;5.466;2023-05-28T02:41:54;101739.28;;;14.35;100.00
9421;BME280;4749;51.398;5.466;2023-05-28T02:44:21;101745.47;;;14.35;100.00
9421;BME280;4749;51.398;5.466;2023-05-28T02:46:49;101740.16;;;14.32;100.00
9421;BME280;4749;51.398;5.466;2023-05-28T02:49:16;101736.66;;;14.30;100.00
9421;BME280;4749;51.398;5.466;2023-05-28T02:51:43;101734.84;;;14.28;100.00
9421;BME280;4749;51.398;5.466;2023-05-28T02:54:10;101741.91;;;14.24;100.00
9421;BME280;4749;51.398;5.466;2023-05-28T02:56:37;101732.19;;;14.19;100.00
9421;BME280;4749;51.398;5.466;2023-05-28T02:59:04;101732.22;;;14.16;100.00
9421;BME280;4749;51.398;5.466;2023-05-28T03:01:34;101733.94;;;14.12;100.00
9421;BME280;4749;51.398;5.466;2023-05-28T03:04:02;101738.34;;;14.10;100.00
9421;BME280;4749;51.398;5.466;2023-05-28T03:06:29;101743.66;;;14.08;100.00
9421;BME280;4749;51.398;5.466;2023-05-28T03:08:57;101746.28;;;14.07;100.00
9421;BME280;4749;51.398;5.466;2023-05-28T03:11:24;101741.00;;;14.05;100.00
9421;BME280;4749;51.398;5.466;2023-05-28T03:13:52;101746.25;;;14.04;100.00
9421;BME280;4749;51.398;5.466;2023-05-28T03:16:19;101741.88;;;14.01;100.00
9421;BME280;4749;51.398;5.466;2023-05-28T03:18:46;101740.97;;;13.99;100.00
9421;BME280;4749;51.398;5.466;2023-05-28T03:21:14;101748.03;;;14.00;100.00
9421;BME280;4749;51.398;5.466;2023-05-28T03:23:42;101749.78;;;13.98;100.00
9421;BME280;4749;51.398;5.466;2023-05-28T03:26:09;101744.47;;;13.95;100.00
9421;BME280;4749;51.398;5.466;2023-05-28T03:28:36;101746.25;;;13.92;100.00
9421;BME280;4749;51.398;5.466;2023-05-28T03:31:03;101748.00;;;13.90;100.00
9421;BME280;4749;51.398;5.466;2023-05-28T03:33:30;101750.63;;;13.87;100.00
9421;BME280;4749;51.398;5.466;2023-05-28T03:35:57;101748.84;;;13.86;100.00
9421;BME280;4749;51.398;5.466;2023-05-28T03:38:25;101754.13;;;13.84;100.00
9421;BME280;4749;51.398;5.466;2023-05-28T03:40:52;101749.75;;;13.83;100.00
9421;BME280;4749;51.398;5.466;2023-05-28T03:43:19;101745.34;;;13.84;100.00
9421;BME280;4749;51.398;5.466;2023-05-28T03:45:46;101741.81;;;13.83;100.00
9421;BME280;4749;51.398;5.466;2023-05-28T03:48:14;101750.63;;;13.84;100.00
9421;BME280;4749;51.398;5.466;2023-05-28T03:50:41;101751.50;;;13.83;100.00
9421;BME280;4749;51.398;5.466;2023-05-28T03:53:09;101765.59;;;13.85;100.00
9421;BME280;4749;51.398;5.466;2023-05-28T03:55:36;101765.59;;;13.85;100.00
9421;BME280;4749;51.398;5.466;2023-05-28T03:58:05;101761.19;;;13.87;100.00
9421;BME280;4749;51.398;5.466;2023-05-28T04:00:32;101770.03;;;13.90;100.00
9421;BME280;4749;51.398;5.466;2023-05-28T04:02:59;101761.22;;;13.93;100.00
9421;BME280;4749;51.398;5.466;2023-05-28T04:05:27;101759.50;;;13.96;100.00
9421;BME280;4749;51.398;5.466;2023-05-28T04:07:55;101762.13;;;14.01;100.00
9421;BME280;4749;51.398;5.466;2023-05-28T04:10:22;101767.41;;;14.04;100.00
9421;BME280;4749;51.398;5.466;2023-05-28T04:12:49;101761.28;;;14.11;100.00
9421;BME280;4749;51.398;5.466;2023-05-28T04:15:16;101768.34;;;14.15;100.00
9421;BME280;4749;51.398;5.466;2023-05-28T04:17:44;101771.91;;;14.25;100.00
9421;BME280;4749;51.398;5.466;2023-05-28T04:20:11;101762.22;;;14.42;100.00
9421;BME280;4749;51.398;5.466;2023-05-28T04:22:39;101764.91;;;14.62;100.00
9421;BME280;4749;51.398;5.466;2023-05-28T04:25:06;101770.22;;;14.79;100.00
9421;BME280;4749;51.398;5.466;2023-05-28T04:27:34;101774.63;;;14.95;100.00
9421;BME280;4749;51.398;5.466;2023-05-28T04:30:01;101774.63;;;15.10;100.00
9421;BME280;4749;51.398;5.466;2023-05-28T04:32:28;101779.00;;;15.27;100.00
9421;BME280;4749;51.398;5.466;2023-05-28T04:34:58;101782.50;;;15.42;100.00
9421;BME280;4749;51.398;5.466;2023-05-28T04:37:30;101777.16;;;15.55;100.00
9421;BME280;4749;51.398;5.466;2023-05-28T04:39:59;101784.22;;;15.68;100.00
9421;BME280;4749;51.398;5.466;2023-05-28T04:42:26;101781.53;;;15.79;100.00
9421;BME280;4749;51.398;5.466;2023-05-28T04:44:55;101784.16;;;15.88;100.00
9421;BME280;4749;51.398;5.466;2023-05-28T04:47:22;101778.81;;;15.97;100.00
9421;BME280;4749;51.398;5.466;2023-05-28T04:49:49;101777.00;;;16.07;100.00
9421;BME280;4749;51.398;5.466;2023-05-28T04:52:16;101787.56;;;16.13;100.00
9421;BME280;4749;51.398;5.466;2023-05-28T04:54:46;101795.50;;;16.19;100.00
9421;BME280;4749;51.398;5.466;2023-05-28T04:57:13;101795.50;;;16.23;100.00
9421;BME280;4749;51.398;5.466;2023-05-28T04:59:41;101797.22;;;16.27;100.00
9421;BME280;4749;51.398;5.466;2023-05-28T05:02:08;101798.94;;;16.35;100.00
9421;BME280;4749;51.398;5.466;2023-05-28T05:04:36;101802.47;;;16.40;100.00
9421;BME280;4749;51.398;5.466;2023-05-28T05:07:03;101805.97;;;16.43;100.00
9421;BME280;4749;51.398;5.466;2023-05-28T05:09:30;101800.63;;;16.46;100.00
9421;BME280;4749;51.398;5.466;2023-05-28T05:11:58;101797.97;;;16.48;100.00
9421;BME280;4749;51.398;5.466;2023-05-28T05:14:25;101797.94;;;16.52;100.00
9421;BME280;4749;51.398;5.466;2023-05-28T05:16:52;101798.78;;;16.59;100.00
9421;BME280;4749;51.398;5.466;2023-05-28T05:19:20;101803.16;;;16.65;100.00
9421;BME280;4749;51.398;5.466;2023-05-28T05:21:47;101797.84;;;16.71;100.00
9421;BME280;4749;51.398;5.466;2023-05-28T05:24:14;101800.44;;;16.78;100.00
9421;BME280;4749;51.398;5.466;2023-05-28T05:26:42;101809.22;;;16.88;100.00
9421;BME280;4749;51.398;5.466;2023-05-28T05:29:09;101811.84;;;16.93;100.00
9421;BME280;4749;51.398;5.466;2023-05-28T05:31:36;101810.03;;;16.99;100.00
9421;BME280;4749;51.398;5.466;2023-05-28T05:34:04;101816.16;;;17.07;100.00
9421;BME280;4749;51.398;5.466;2023-05-28T05:36:32;101811.66;;;17.14;100.00
9421;BME280;4749;51.398;5.466;2023-05-28T05:38:59;101807.19;;;17.19;100.00
9421;BME280;4749;51.398;5.466;2023-05-28T05:41:26;101816.84;;;17.28;100.00
9421;BME280;4749;51.398;5.466;2023-05-28T05:43:53;101813.25;;;17.35;100.00
9421;BME280;4749;51.398;5.466;2023-05-28T05:46:20;101819.38;;;17.40;100.00
9421;BME280;4749;51.398;5.466;2023-05-28T05:48:47;101822.84;;;17.50;100.00
9421;BME280;4749;51.398;5.466;2023-05-28T05:51:15;101822.75;;;17.57;100.00
9421;BME280;4749;51.398;5.466;2023-05-28T05:53:45;101827.06;;;17.67;100.00
9421;BME280;4749;51.398;5.466;2023-05-28T05:56:12;101827.88;;;17.77;100.00
9421;BME280;4749;51.398;5.466;2023-05-28T05:58:39;101826.81;;;17.90;100.00
9421;BME280;4749;51.398;5.466;2023-05-28T06:01:08;101822.25;;;18.03;100.00
9421;BME280;4749;51.398;5.466;2023-05-28T06:03:35;101825.63;;;18.14;100.00
9421;BME280;4749;51.398;5.466;2023-05-28T06:06:03;101824.63;;;18.23;100.00
9421;BME280;4749;51.398;5.466;2023-05-28T06:08:30;101825.38;;;18.34;100.00
9421;BME280;4749;51.398;5.466;2023-05-28T06:10:57;101830.56;;;18.45;100.00
9421;BME280;4749;51.398;5.466;2023-05-28T06:13:24;101822.47;;;18.51;100.00
9421;BME280;4749;51.398;5.466;2023-05-28T06:15:52;101824.13;;;18.58;100.00
9421;BME280;4749;51.398;5.466;2023-05-28T06:18:19;101825.84;;;18.65;100.00
9421;BME280;4749;51.398;5.466;2023-05-28T06:20:46;101834.56;;;18.75;100.00
9421;BME280;4749;51.398;5.466;2023-05-28T06:23:13;101837.97;;;18.84;100.00
9421;BME280;4749;51.398;5.466;2023-05-28T06:25:41;101842.22;;;18.96;100.00
9421;BME280;4749;51.398;5.466;2023-05-28T06:28:08;101842.94;;;19.06;100.00
9421;BME280;4749;51.398;5.466;2023-05-28T06:30:36;101838.41;;;19.12;100.00
9421;BME280;4749;51.398;5.466;2023-05-28T06:33:03;101841.00;;;19.17;100.00
9421;BME280;4749;51.398;5.466;2023-05-28T06:35:30;101840.81;;;19.28;100.00
9421;BME280;4749;51.398;5.466;2023-05-28T06:37:57;101838.84;;;19.37;100.00
9421;BME280;4749;51.398;5.466;2023-05-28T06:40:24;101835.16;;;19.45;100.00
9421;BME280;4749;51.398;5.466;2023-05-28T06:42:52;101834.16;;;19.52;100.00
9421;BME280;4749;51.398;5.466;2023-05-28T06:45:19;101830.44;;;19.62;100.00
9421;BME280;4749;51.398;5.466;2023-05-28T06:47:47;101830.25;;;19.71;100.00
9421;BME280;4749;51.398;5.466;2023-05-28T06:50:14;101833.66;;;19.79;100.00
9421;BME280;4749;51.398;5.466;2023-05-28T06:52:42;101840.63;;;19.86;100.00
9421;BME280;4749;51.398;5.466;2023-05-28T06:55:09;101844.91;;;19.95;100.00
9421;BME280;4749;51.398;5.466;2023-05-28T06:57:38;101836.78;;;20.01;100.00
9421;BME280;4749;51.398;5.466;2023-05-28T07:00:06;101833.84;;;20.13;100.00
9421;BME280;4749;51.398;5.466;2023-05-28T07:02:37;101836.22;;;20.27;100.00
9421;BME280;4749;51.398;5.466;2023-05-28T07:05:05;101835.84;;;20.42;100.00
9421;BME280;4749;51.398;5.466;2023-05-28T07:07:33;101834.75;;;20.54;100.00
9421;BME280;4749;51.398;5.466;2023-05-28T07:10:01;101834.50;;;20.65;100.00
9421;BME280;4749;51.398;5.466;2023-05-28T07:12:29;101843.06;;;20.79;100.00
9421;BME280;4749;51.398;5.466;2023-05-28T07:14:56;101835.59;;;20.92;100.00
9421;BME280;4749;51.398;5.466;2023-05-28T07:17:23;101837.13;;;21.02;100.00
9421;BME280;4749;51.398;5.466;2023-05-28T07:19:51;101841.25;;;21.15;100.00
9421;BME280;4749;51.398;5.466;2023-05-28T07:22:18;101849.03;;;21.27;100.00
9421;BME280;4749;51.398;5.466;2023-05-28T07:24:46;101851.31;;;21.41;100.00
9421;BME280;4749;51.398;5.466;2023-05-28T07:27:13;101858.13;;;21.54;99.58
9421;BME280;4749;51.398;5.466;2023-05-28T07:29:40;101854.34;;;21.61;98.18
9421;BME280;4749;51.398;5.466;2023-05-28T07:32:07;101849.63;;;21.71;97.15
9421;BME280;4749;51.398;5.466;2023-05-28T07:34:36;101847.41;;;21.85;96.37
9421;BME280;4749;51.398;5.466;2023-05-28T07:37:06;101847.19;;;21.95;95.07
9421;BME280;4749;51.398;5.466;2023-05-28T07:39:34;101857.56;;;22.05;92.56
9421;BME280;4749;51.398;5.466;2023-05-28T07:42:01;101850.28;;;22.12;91.03
9421;BME280;4749;51.398;5.466;2023-05-28T07:44:28;101847.22;;;22.24;90.06
9421;BME280;4749;51.398;5.466;2023-05-28T07:46:55;101860.28;;;22.35;88.21
9421;BME280;4749;51.398;5.466;2023-05-28T07:49:24;101846.59;;;22.45;86.82
9421;BME280;4749;51.398;5.466;2023-05-28T07:51:51;101845.25;;;22.59;86.18
9421;BME280;4749;51.398;5.466;2023-05-28T07:54:18;101850.13;;;22.74;84.98
9421;BME280;4749;51.398;5.466;2023-05-28T07:56:45;101856.06;;;22.85;84.00
9421;BME280;4749;51.398;5.466;2023-05-28T07:59:12;101848.63;;;22.93;83.06
9421;BME280;4749;51.398;5.466;2023-05-28T08:01:39;101845.72;;;23.01;82.89
9421;BME280;4749;51.398;5.466;2023-05-28T08:04:07;101849.06;;;23.08;82.20
9421;BME280;4749;51.398;5.466;2023-05-28T08:06:34;101848.06;;;23.10;81.36
9421;BME280;4749;51.398;5.466;2023-05-28T08:09:02;101839.22;;;23.08;80.52
9421;BME280;4749;51.398;5.466;2023-05-28T08:11:29;101851.63;;;23.11;79.96
9421;BME280;4749;51.398;5.466;2023-05-28T08:13:57;101844.00;;;23.25;79.24
9421;BME280;4749;51.398;5.466;2023-05-28T08:16:24;101844.47;;;23.38;78.42
9421;BME280;4749;51.398;5.466;2023-05-28T08:18:51;101840.41;;;23.51;78.07
9421;BME280;4749;51.398;5.466;2023-05-28T08:21:18;101847.22;;;23.61;77.30
9421;BME280;4749;51.398;5.466;2023-05-28T08:23:45;101845.22;;;23.68;76.64
9421;BME280;4749;51.398;5.466;2023-05-28T08:26:12;101840.50;;;23.74;76.04
9421;BME280;4749;51.398;5.466;2023-05-28T08:28:40;101835.78;;;23.81;75.39
9421;BME280;4749;51.398;5.466;2023-05-28T08:31:07;101833.69;;;23.89;75.06
9421;BME280;4749;51.398;5.466;2023-05-28T08:33:34;101828.91;;;23.97;74.23
9421;BME280;4749;51.398;5.466;2023-05-28T08:36:01;101825.03;;;24.04;73.96
9421;BME280;4749;51.398;5.466;2023-05-28T08:38:29;101822.94;;;24.12;73.53
9421;BME280;4749;51.398;5.466;2023-05-28T08:40:57;101835.19;;;24.20;73.10
9421;BME280;4749;51.398;5.466;2023-05-28T08:43:24;101820.72;;;24.24;72.62
9421;BME280;4749;51.398;5.466;2023-05-28T08:45:52;101821.38;;;24.30;72.27
9421;BME280;4749;51.398;5.466;2023-05-28T08:48:21;101828.22;;;24.39;71.53
9421;BME280;4749;51.398;5.466;2023-05-28T08:50:50;101822.72;;;24.42;70.51
9421;BME280;4749;51.398;5.466;2023-05-28T08:53:22;101820.84;;;24.44;69.81
9421;BME280;4749;51.398;5.466;2023-05-28T08:55:52;101815.28;;;24.49;69.78
9421;BME280;4749;51.398;5.466;2023-05-28T08:58:20;101821.31;;;24.55;69.88
9421;BME280;4749;51.398;5.466;2023-05-28T09:00:48;101806.63;;;24.64;69.34
9421;BME280;4749;51.398;5.466;2023-05-28T09:03:15;101806.47;;;24.67;68.74
9421;BME280;4749;51.398;5.466;2023-05-28T09:05:42;101811.06;;;24.65;68.38
9421;BME280;4749;51.398;5.466;2023-05-28T09:08:12;101815.97;;;24.54;67.87
9421;BME280;4749;51.398;5.466;2023-05-28T09:10:41;101812.38;;;24.31;68.06
9421;BME280;4749;51.398;5.466;2023-05-28T09:13:08;101804.19;;;24.11;68.33
9421;BME280;4749;51.398;5.466;2023-05-28T09:15:35;101797.78;;;23.92;68.76
9421;BME280;4749;51.398;5.466;2023-05-28T09:18:05;101795.69;;;24.00;67.85
9421;BME280;4749;51.398;5.466;2023-05-28T09:20:33;101800.91;;;24.03;67.39
9421;BME280;4749;51.398;5.466;2023-05-28T09:23:03;101809.34;;;24.17;67.27
9421;BME280;4749;51.398;5.466;2023-05-28T09:25:35;101805.09;;;24.35;66.73
9421;BME280;4749;51.398;5.466;2023-05-28T09:28:03;101814.13;;;24.56;66.85
9421;BME280;4749;51.398;5.466;2023-05-28T09:30:35;101804.28;;;24.77;66.26
9421;BME280;4749;51.398;5.466;2023-05-28T09:33:06;101802.78;;;24.91;65.87
9421;BME280;4749;51.398;5.466;2023-05-28T09:35:35;101813.41;;;25.16;65.51
9421;BME280;4749;51.398;5.466;2023-05-28T09:38:09;101808.16;;;25.34;64.65
9421;BME280;4749;51.398;5.466;2023-05-28T09:40:44;101808.44;;;25.48;63.61
9421;BME280;4749;51.398;5.466;2023-05-28T09:43:12;101808.81;;;25.59;62.89
9421;BME280;4749;51.398;5.466;2023-05-28T09:45:39;101806.34;;;25.75;62.70
9421;BME280;4749;51.398;5.466;2023-05-28T09:48:06;101804.38;;;25.78;62.71
9421;BME280;4749;51.398;5.466;2023-05-28T09:50:34;101796.38;;;25.96;63.08
9421;BME280;4749;51.398;5.466;2023-05-28T09:53:03;101795.47;;;26.16;62.65
9421;BME280;4749;51.398;5.466;2023-05-28T09:55:32;101804.41;;;26.35;62.66
9421;BME280;4749;51.398;5.466;2023-05-28T09:58:05;101800.84;;;26.53;62.06
9421;BME280;4749;51.398;5.466;2023-05-28T10:00:38;101802.63;;;26.72;61.50
9421;BME280;4749;51.398;5.466;2023-05-28T10:06:06;101796.09;;;26.94;60.92
9421;BME280;4749;51.398;5.466;2023-05-28T10:08:38;101799.50;;;26.98;60.48
9421;BME280;4749;51.398;5.466;2023-05-28T10:11:11;101807.16;;;27.07;60.09
9421;BME280;4749;51.398;5.466;2023-05-28T10:13:40;101810.03;;;27.21;59.57
9421;BME280;4749;51.398;5.466;2023-05-28T10:16:08;101799.22;;;27.39;59.28
9421;BME280;4749;51.398;5.466;2023-05-28T10:18:36;101799.59;;;27.48;58.52
9421;BME280;4749;51.398;5.466;2023-05-28T10:21:07;101799.03;;;27.59;58.21
9421;BME280;4749;51.398;5.466;2023-05-28T10:23:36;101795.28;;;27.62;57.99
9421;BME280;4749;51.398;5.466;2023-05-28T10:26:04;101807.66;;;27.66;58.23
9421;BME280;4749;51.398;5.466;2023-05-28T10:28:32;101802.94;;;27.71;57.23
9421;BME280;4749;51.398;5.466;2023-05-28T10:31:08;101793.91;;;27.88;56.62
9421;BME280;4749;51.398;5.466;2023-05-28T10:33:39;101803.34;;;28.12;56.55
9421;BME280;4749;51.398;5.466;2023-05-28T10:36:17;101797.47;;;28.37;55.95
9421;BME280;4749;51.398;5.466;2023-05-28T10:41:22;101800.50;;;28.78;54.77
9421;BME280;4749;51.398;5.466;2023-05-28T10:43:50;101806.94;;;28.92;54.67
9421;BME280;4749;51.398;5.466;2023-05-28T10:49:08;101817.31;;;29.29;53.34
9421;BME280;4749;51.398;5.466;2023-05-28T10:52:01;101815.53;;;29.44;52.71
9421;BME280;4749;51.398;5.466;2023-05-28T10:57:16;101818.75;;;29.51;51.68
9421;BME280;4749;51.398;5.466;2023-05-28T10:59:59;101818.31;;;29.42;50.99
9421;BME280;4749;51.398;5.466;2023-05-28T11:02:32;101822.03;;;29.26;51.10
9421;BME280;4749;51.398;5.466;2023-05-28T11:05:02;101818.25;;;29.14;51.03
9421;BME280;4749;51.398;5.466;2023-05-28T11:07:39;101814.00;;;29.10;50.75
9421;BME280;4749;51.398;5.466;2023-05-28T11:10:11;101821.25;;;29.09;50.57
9421;BME280;4749;51.398;5.466;2023-05-28T11:12:42;101811.09;;;29.13;50.29
9421;BME280;4749;51.398;5.466;2023-05-28T11:15:12;101805.88;;;29.10;50.33
9421;BME280;4749;51.398;5.466;2023-05-28T11:17:41;101814.78;;;29.12;50.30
9421;BME280;4749;51.398;5.466;2023-05-28T11:20:23;101815.34;;;29.17;50.40
9421;BME280;4749;51.398;5.466;2023-05-28T11:22:54;101807.31;;;29.15;50.04
9421;BME280;4749;51.398;5.466;2023-05-28T11:25:22;101815.34;;;29.17;50.10
9421;BME280;4749;51.398;5.466;2023-05-28T11:27:53;101814.78;;;29.12;49.74
9421;BME280;4749;51.398;5.466;2023-05-28T11:30:20;101810.25;;;28.97;50.09
9421;BME280;4749;51.398;5.466;2023-05-28T11:32:49;101805.03;;;28.94;49.83
9421;BME280;4749;51.398;5.466;2023-05-28T11:35:17;101802.03;;;28.98;49.67
9421;BME280;4749;51.398;5.466;2023-05-28T11:37:45;101810.69;;;29.05;49.94
9421;BME280;4749;51.398;5.466;2023-05-28T11:40:14;101806.13;;;29.05;49.54
9421;BME280;4749;51.398;5.466;2023-05-28T11:42:43;101799.84;;;29.05;49.20
9421;BME280;4749;51.398;5.466;2023-05-28T11:45:12;101801.50;;;29.07;49.13
9421;BME280;4749;51.398;5.466;2023-05-28T11:47:40;101792.25;;;29.11;49.21
9421;BME280;4749;51.398;5.466;2023-05-28T11:50:13;101795.53;;;29.16;49.33
9421;BME280;4749;51.398;5.466;2023-05-28T11:52:42;101789.06;;;29.19;49.18
9421;BME280;4749;51.398;5.466;2023-05-28T11:55:09;101787.03;;;29.23;49.03
9421;BME280;4749;51.398;5.466;2023-05-28T11:57:37;101781.41;;;29.26;48.70
9421;BME280;4749;51.398;5.466;2023-05-28T12:00:11;101792.66;;;29.20;48.50
9421;BME280;4749;51.398;5.466;2023-05-28T12:02:47;101785.25;;;29.07;48.29
9421;BME280;4749;51.398;5.466;2023-05-28T12:05:16;101784.84;;;28.99;48.50
9421;BME280;4749;51.398;5.466;2023-05-28T12:07:50;101776.13;;;28.94;48.90
9421;BME280;4749;51.398;5.466;2023-05-28T12:10:20;101792.78;;;28.86;48.97
9421;BME280;4749;51.398;5.466;2023-05-28T12:12:50;101790.63;;;28.77;49.00
9421;BME280;4749;51.398;5.466;2023-05-28T12:15:24;101781.22;;;28.69;49.16
9421;BME280;4749;51.398;5.466;2023-05-28T12:18:01;101777.28;;;28.58;49.13
9421;BME280;4749;51.398;5.466;2023-05-28T12:20:39;101789.78;;;28.45;49.20
9421;BME280;4749;51.398;5.466;2023-05-28T12:23:12;101788.03;;;28.28;49.51
9421;BME280;4749;51.398;5.466;2023-05-28T12:28:13;101782.09;;;28.22;49.44
9421;BME280;4749;51.398;5.466;2023-05-28T12:30:43;101791.06;;;28.22;49.48
9421;BME280;4749;51.398;5.466;2023-05-28T12:33:11;101782.09;;;28.22;49.43
9421;BME280;4749;51.398;5.466;2023-05-28T12:35:38;101779.38;;;28.22;49.13
9421;BME280;4749;51.398;5.466;2023-05-28T12:38:05;101785.56;;;28.24;49.47
9421;BME280;4749;51.398;5.466;2023-05-28T12:40:32;101777.31;;;28.27;49.70
9421;BME280;4749;51.398;5.466;2023-05-28T12:42:59;101781.44;;;28.34;49.20
9421;BME280;4749;51.398;5.466;2023-05-28T12:45:27;101780.72;;;28.46;49.45
9421;BME280;4749;51.398;5.466;2023-05-28T12:47:55;101783.50;;;28.60;49.01
9421;BME280;4749;51.398;5.466;2023-05-28T12:50:22;101789.06;;;28.73;48.94
9421;BME280;4749;51.398;5.466;2023-05-28T12:52:51;101775.38;;;28.76;48.50
9421;BME280;4749;51.398;5.466;2023-05-28T12:55:19;101779.53;;;28.82;48.11
9421;BME280;4749;51.398;5.466;2023-05-28T12:57:47;101789.22;;;28.86;48.11
9421;BME280;4749;51.398;5.466;2023-05-28T13:00:14;101787.22;;;28.90;47.43
9421;BME280;4749;51.398;5.466;2023-05-28T13:02:42;101785.81;;;28.98;47.04
9421;BME280;4749;51.398;5.466;2023-05-28T13:05:09;101782.63;;;29.06;46.40
9421;BME280;4749;51.398;5.466;2023-05-28T13:07:36;101776.66;;;29.15;46.08
9421;BME280;4749;51.398;5.466;2023-05-28T13:10:04;101770.41;;;29.29;46.04
9421;BME280;4749;51.398;5.466;2023-05-28T13:12:35;101776.91;;;29.40;46.36
9421;BME280;4749;51.398;5.466;2023-05-28T13:15:07;101756.69;;;29.46;46.57
9421;BME280;4749;51.398;5.466;2023-05-28T13:17:34;101745.53;;;29.52;46.64
9421;BME280;4749;51.398;5.466;2023-05-28T13:20:02;101762.56;;;29.54;46.58
9421;BME280;4749;51.398;5.466;2023-05-28T13:22:37;101756.06;;;29.57;46.58
9421;BME280;4749;51.398;5.466;2023-05-28T13:25:06;101768.16;;;29.65;46.21